Aérodrome :







RETROUVEZ-NOUS SUR...

 
LOGIN :

S'inscrire | Disclaimer

   EN    FR    IT 

 









Légende :    VFR   VFR Marginal   IFR   IFR Intensif   IFR Très Intensif
Visi : 
Plafond : 
>= 8 km
>= 3000ft
5 à 8 km
1000 à 3000 ft
1500m à 5 km
500 à 1000 ft
800 à 1500m
200 à 500 ft
< 800m
< 200 ft
Symboles :   Orages  Brouillard  Fortes neiges  Fortes précipitations  Vent > 20 kt






- Altitude de l'aérodrome : 1808 ft
- Code IATA : YWK


CYWK - Wabush

DERNIER METAR :
  • 020721Z AUTO 04009KT 2SM -SN OVC017 M03/M04 A3013 RMK ICG SLP238

METARs EXPIRÉS :
  • 020711Z AUTO 03010KT 1 3/4SM -SN OVC019 M03/M04 A3013 RMK ICG INTMT SLP238
  • 020702Z AUTO 03008KT 1 3/4SM -SN -FZUP OVC019 M03/M04 A3013 RMK ICG SLP238
  • 020600Z AUTO 03012KT 1 1/4SM -SN OVC017 M04/M05 A3013 RMK PCPN 1.0MM PAST HR SLP237
  • 020500Z AUTO 03011KT 3/4SM -SN VV010 M04/M05 A3013 RMK SLP239

TAF TAF CYWK
Valide du 02 à 02h jusqu'au 02 à 14h UTC


020138Z 0202/0214 06015KT 1SM -SN OVC008
TEMPO 0202/0212 3SM -SN OVC015
PROB30 0209/0212 4SM -FZRA -PL BR
FM021200 08015G25KT 6SM -SN BR OVC008
PROB30 0212/0214 2SM -FZDZ BR RMK NXT FCST BY 020800Z



MET'MAP, la Météo Aéronautique d'un coup d'oeil ! - Copyright ORBIFLY Décembre 2007 - Disclaimer

ORBIFLY MET'MAP TEAM :

Programmation & Développement : Alexandra Zaïnal
Sur une idée originale de : Baudouin d'Aumeries
Assistance à la programmation : Marc-Olivier Méhu
Soutien technique & logistique : Manuel Goepfert

Contact : metmap@orbifly.com




SOURCES & CREDITS :

   NOAA